sensor_id;sensor_type;location;lat;lon;timestamp;P1;durP1;ratioP1;P2;durP2;ratioP2
77453;SDS011;66538;53.150;18.160;2023-08-20T00:02:20;18.50;;;16.20;;
77453;SDS011;66538;53.150;18.160;2023-08-20T00:04:49;18.20;;;14.50;;
77453;SDS011;66538;53.150;18.160;2023-08-20T00:07:17;21.60;;;16.70;;
77453;SDS011;66538;53.150;18.160;2023-08-20T00:09:44;17.60;;;15.60;;
77453;SDS011;66538;53.150;18.160;2023-08-20T00:12:11;20.00;;;16.50;;
77453;SDS011;66538;53.150;18.160;2023-08-20T00:17:21;19.70;;;16.00;;
77453;SDS011;66538;53.150;18.160;2023-08-20T00:19:48;19.80;;;17.20;;
77453;SDS011;66538;53.150;18.160;2023-08-20T00:22:16;18.90;;;16.60;;
77453;SDS011;66538;53.150;18.160;2023-08-20T00:24:43;19.90;;;16.60;;
77453;SDS011;66538;53.150;18.160;2023-08-20T00:27:10;20.60;;;17.80;;
77453;SDS011;66538;53.150;18.160;2023-08-20T00:29:37;21.90;;;17.20;;
77453;SDS011;66538;53.150;18.160;2023-08-20T00:32:04;21.10;;;18.40;;
77453;SDS011;66538;53.150;18.160;2023-08-20T00:34:31;21.80;;;17.00;;
77453;SDS011;66538;53.150;18.160;2023-08-20T00:36:57;20.30;;;16.10;;
77453;SDS011;66538;53.150;18.160;2023-08-20T00:39:24;19.90;;;17.10;;
77453;SDS011;66538;53.150;18.160;2023-08-20T00:41:51;20.80;;;16.90;;
77453;SDS011;66538;53.150;18.160;2023-08-20T00:44:17;20.90;;;17.40;;
77453;SDS011;66538;53.150;18.160;2023-08-20T00:46:44;20.40;;;16.60;;
77453;SDS011;66538;53.150;18.160;2023-08-20T00:49:12;19.20;;;16.00;;
77453;SDS011;66538;53.150;18.160;2023-08-20T00:51:39;18.60;;;15.60;;
77453;SDS011;66538;53.150;18.160;2023-08-20T00:54:06;22.20;;;16.90;;
77453;SDS011;66538;53.150;18.160;2023-08-20T00:56:33;20.50;;;16.80;;
77453;SDS011;66538;53.150;18.160;2023-08-20T00:59:00;20.60;;;16.30;;
77453;SDS011;66538;53.150;18.160;2023-08-20T01:01:28;18.70;;;15.40;;
77453;SDS011;66538;53.150;18.160;2023-08-20T01:03:55;19.70;;;16.00;;
77453;SDS011;66538;53.150;18.160;2023-08-20T01:06:25;21.70;;;17.00;;
77453;SDS011;66538;53.150;18.160;2023-08-20T01:09:07;19.80;;;16.40;;
77453;SDS011;66538;53.150;18.160;2023-08-20T01:11:49;19.50;;;16.60;;
77453;SDS011;66538;53.150;18.160;2023-08-20T01:14:22;18.20;;;15.50;;
77453;SDS011;66538;53.150;18.160;2023-08-20T01:16:49;18.20;;;15.80;;
77453;SDS011;66538;53.150;18.160;2023-08-20T01:19:16;19.10;;;16.20;;
77453;SDS011;66538;53.150;18.160;2023-08-20T01:30:12;19.40;;;17.10;;
77453;SDS011;66538;53.150;18.160;2023-08-20T01:32:39;19.30;;;16.40;;
77453;SDS011;66538;53.150;18.160;2023-08-20T01:35:12;19.80;;;17.30;;
77453;SDS011;66538;53.150;18.160;2023-08-20T01:37:42;17.90;;;15.90;;
77453;SDS011;66538;53.150;18.160;2023-08-20T01:40:10;19.00;;;16.70;;
77453;SDS011;66538;53.150;18.160;2023-08-20T01:45:05;17.30;;;14.70;;
77453;SDS011;66538;53.150;18.160;2023-08-20T01:47:33;19.50;;;17.40;;
77453;SDS011;66538;53.150;18.160;2023-08-20T01:50:01;19.40;;;16.90;;
77453;SDS011;66538;53.150;18.160;2023-08-20T01:52:28;19.80;;;16.80;;
77453;SDS011;66538;53.150;18.160;2023-08-20T01:54:58;18.40;;;16.10;;
77453;SDS011;66538;53.150;18.160;2023-08-20T01:57:24;21.20;;;18.30;;
77453;SDS011;66538;53.150;18.160;2023-08-20T01:59:51;20.50;;;17.00;;
77453;SDS011;66538;53.150;18.160;2023-08-20T02:02:18;20.90;;;16.90;;
77453;SDS011;66538;53.150;18.160;2023-08-20T02:04:44;20.30;;;17.30;;
77453;SDS011;66538;53.150;18.160;2023-08-20T02:07:11;19.40;;;16.80;;
77453;SDS011;66538;53.150;18.160;2023-08-20T02:09:37;20.10;;;17.60;;
77453;SDS011;66538;53.150;18.160;2023-08-20T02:12:04;20.80;;;16.80;;
77453;SDS011;66538;53.150;18.160;2023-08-20T02:14:32;19.20;;;16.70;;
77453;SDS011;66538;53.150;18.160;2023-08-20T02:17:04;22.30;;;17.80;;
77453;SDS011;66538;53.150;18.160;2023-08-20T02:19:31;21.70;;;18.10;;
77453;SDS011;66538;53.150;18.160;2023-08-20T02:21:57;21.30;;;18.90;;
77453;SDS011;66538;53.150;18.160;2023-08-20T02:24:24;21.80;;;17.40;;
77453;SDS011;66538;53.150;18.160;2023-08-20T02:26:51;20.70;;;18.20;;
77453;SDS011;66538;53.150;18.160;2023-08-20T02:29:17;22.20;;;17.40;;
77453;SDS011;66538;53.150;18.160;2023-08-20T02:31:44;23.00;;;18.30;;
77453;SDS011;66538;53.150;18.160;2023-08-20T02:34:10;22.60;;;18.90;;
77453;SDS011;66538;53.150;18.160;2023-08-20T02:36:37;20.20;;;17.10;;
77453;SDS011;66538;53.150;18.160;2023-08-20T02:39:04;21.50;;;17.60;;
77453;SDS011;66538;53.150;18.160;2023-08-20T02:41:35;21.70;;;17.50;;
77453;SDS011;66538;53.150;18.160;2023-08-20T02:44:02;20.60;;;17.90;;
77453;SDS011;66538;53.150;18.160;2023-08-20T02:46:30;22.30;;;18.20;;
77453;SDS011;66538;53.150;18.160;2023-08-20T02:48:57;20.20;;;16.90;;
77453;SDS011;66538;53.150;18.160;2023-08-20T02:51:24;21.50;;;17.80;;
77453;SDS011;66538;53.150;18.160;2023-08-20T02:53:50;22.50;;;17.90;;
77453;SDS011;66538;53.150;18.160;2023-08-20T02:56:17;23.80;;;19.80;;
77453;SDS011;66538;53.150;18.160;2023-08-20T02:58:44;21.60;;;18.20;;
77453;SDS011;66538;53.150;18.160;2023-08-20T03:01:17;23.20;;;17.50;;
77453;SDS011;66538;53.150;18.160;2023-08-20T03:03:48;21.30;;;18.10;;
77453;SDS011;66538;53.150;18.160;2023-08-20T03:06:14;21.10;;;17.50;;
77453;SDS011;66538;53.150;18.160;2023-08-20T03:08:41;20.20;;;17.20;;
77453;SDS011;66538;53.150;18.160;2023-08-20T03:11:08;20.30;;;17.50;;
77453;SDS011;66538;53.150;18.160;2023-08-20T03:13:34;21.10;;;17.30;;
77453;SDS011;66538;53.150;18.160;2023-08-20T03:16:01;21.30;;;17.30;;
77453;SDS011;66538;53.150;18.160;2023-08-20T03:18:29;22.10;;;18.40;;
77453;SDS011;66538;53.150;18.160;2023-08-20T03:20:56;22.50;;;18.70;;
77453;SDS011;66538;53.150;18.160;2023-08-20T03:23:23;22.70;;;17.60;;
77453;SDS011;66538;53.150;18.160;2023-08-20T03:25:50;23.10;;;19.50;;
77453;SDS011;66538;53.150;18.160;2023-08-20T03:28:21;22.30;;;19.40;;
77453;SDS011;66538;53.150;18.160;2023-08-20T03:30:48;21.40;;;19.10;;
77453;SDS011;66538;53.150;18.160;2023-08-20T03:33:16;23.00;;;18.30;;
77453;SDS011;66538;53.150;18.160;2023-08-20T03:35:44;20.20;;;16.80;;
77453;SDS011;66538;53.150;18.160;2023-08-20T03:38:12;21.40;;;18.00;;
77453;SDS011;66538;53.150;18.160;2023-08-20T03:40:38;21.10;;;16.50;;
77453;SDS011;66538;53.150;18.160;2023-08-20T03:43:05;20.30;;;17.10;;
77453;SDS011;66538;53.150;18.160;2023-08-20T03:45:32;20.90;;;18.20;;
77453;SDS011;66538;53.150;18.160;2023-08-20T03:47:58;22.00;;;17.70;;
77453;SDS011;66538;53.150;18.160;2023-08-20T03:50:26;22.40;;;18.80;;
77453;SDS011;66538;53.150;18.160;2023-08-20T03:52:52;19.40;;;16.60;;
77453;SDS011;66538;53.150;18.160;2023-08-20T03:55:19;21.10;;;16.90;;
77453;SDS011;66538;53.150;18.160;2023-08-20T03:57:45;21.30;;;18.10;;
77453;SDS011;66538;53.150;18.160;2023-08-20T04:00:12;20.00;;;17.20;;
77453;SDS011;66538;53.150;18.160;2023-08-20T04:02:42;19.90;;;17.40;;
77453;SDS011;66538;53.150;18.160;2023-08-20T04:05:08;20.20;;;16.70;;
77453;SDS011;66538;53.150;18.160;2023-08-20T04:07:35;23.40;;;18.70;;
77453;SDS011;66538;53.150;18.160;2023-08-20T04:10:02;20.70;;;17.30;;
77453;SDS011;66538;53.150;18.160;2023-08-20T04:12:29;20.80;;;17.00;;
77453;SDS011;66538;53.150;18.160;2023-08-20T04:14:56;20.80;;;17.70;;
77453;SDS011;66538;53.150;18.160;2023-08-20T04:17:23;21.40;;;18.00;;
77453;SDS011;66538;53.150;18.160;2023-08-20T04:19:51;19.90;;;16.40;;
77453;SDS011;66538;53.150;18.160;2023-08-20T04:22:18;21.90;;;18.50;;
77453;SDS011;66538;53.150;18.160;2023-08-20T04:24:45;21.60;;;17.40;;
77453;SDS011;66538;53.150;18.160;2023-08-20T04:27:11;20.40;;;17.50;;
77453;SDS011;66538;53.150;18.160;2023-08-20T04:29:40;20.10;;;17.50;;
77453;SDS011;66538;53.150;18.160;2023-08-20T04:32:06;22.10;;;16.80;;
77453;SDS011;66538;53.150;18.160;2023-08-20T04:34:33;21.00;;;17.50;;
77453;SDS011;66538;53.150;18.160;2023-08-20T04:37:00;21.20;;;17.90;;
77453;SDS011;66538;53.150;18.160;2023-08-20T04:39:26;21.60;;;18.50;;
77453;SDS011;66538;53.150;18.160;2023-08-20T04:41:53;21.70;;;18.00;;
77453;SDS011;66538;53.150;18.160;2023-08-20T04:44:23;20.30;;;17.40;;
77453;SDS011;66538;53.150;18.160;2023-08-20T04:46:50;21.00;;;17.10;;
77453;SDS011;66538;53.150;18.160;2023-08-20T04:49:18;20.70;;;16.20;;
77453;SDS011;66538;53.150;18.160;2023-08-20T04:51:44;21.20;;;16.40;;
77453;SDS011;66538;53.150;18.160;2023-08-20T04:54:11;23.80;;;20.70;;
77453;SDS011;66538;53.150;18.160;2023-08-20T04:56:37;22.20;;;19.80;;
77453;SDS011;66538;53.150;18.160;2023-08-20T04:59:04;23.20;;;19.00;;
77453;SDS011;66538;53.150;18.160;2023-08-20T05:01:49;22.20;;;19.40;;
77453;SDS011;66538;53.150;18.160;2023-08-20T05:04:17;24.80;;;21.30;;
77453;SDS011;66538;53.150;18.160;2023-08-20T05:06:43;23.60;;;20.40;;
77453;SDS011;66538;53.150;18.160;2023-08-20T05:09:10;23.20;;;19.90;;
77453;SDS011;66538;53.150;18.160;2023-08-20T05:11:37;24.30;;;20.70;;
77453;SDS011;66538;53.150;18.160;2023-08-20T05:14:04;27.20;;;23.20;;
77453;SDS011;66538;53.150;18.160;2023-08-20T05:16:30;30.60;;;26.90;;
77453;SDS011;66538;53.150;18.160;2023-08-20T05:18:57;30.40;;;25.20;;
77453;SDS011;66538;53.150;18.160;2023-08-20T05:21:24;28.60;;;24.10;;
77453;SDS011;66538;53.150;18.160;2023-08-20T05:23:50;30.90;;;26.80;;
77453;SDS011;66538;53.150;18.160;2023-08-20T05:26:17;30.00;;;24.10;;
77453;SDS011;66538;53.150;18.160;2023-08-20T05:28:45;29.60;;;24.00;;
77453;SDS011;66538;53.150;18.160;2023-08-20T05:31:11;25.10;;;22.20;;
77453;SDS011;66538;53.150;18.160;2023-08-20T05:33:38;26.00;;;22.80;;
77453;SDS011;66538;53.150;18.160;2023-08-20T05:36:05;25.60;;;22.50;;
77453;SDS011;66538;53.150;18.160;2023-08-20T05:38:32;25.70;;;22.80;;
77453;SDS011;66538;53.150;18.160;2023-08-20T05:40:58;27.00;;;24.10;;
77453;SDS011;66538;53.150;18.160;2023-08-20T05:43:25;29.30;;;26.10;;
77453;SDS011;66538;53.150;18.160;2023-08-20T05:45:52;27.40;;;24.40;;
77453;SDS011;66538;53.150;18.160;2023-08-20T05:48:21;25.10;;;21.70;;
77453;SDS011;66538;53.150;18.160;2023-08-20T05:50:47;25.20;;;22.50;;
77453;SDS011;66538;53.150;18.160;2023-08-20T05:53:15;26.10;;;23.20;;
77453;SDS011;66538;53.150;18.160;2023-08-20T05:55:43;27.60;;;24.10;;
77453;SDS011;66538;53.150;18.160;2023-08-20T05:58:10;25.90;;;23.10;;
77453;SDS011;66538;53.150;18.160;2023-08-20T06:00:37;27.60;;;23.80;;
77453;SDS011;66538;53.150;18.160;2023-08-20T06:03:04;27.20;;;24.30;;
77453;SDS011;66538;53.150;18.160;2023-08-20T06:05:31;25.60;;;22.80;;
77453;SDS011;66538;53.150;18.160;2023-08-20T06:07:58;26.80;;;23.80;;
77453;SDS011;66538;53.150;18.160;2023-08-20T06:10:24;25.90;;;23.00;;
77453;SDS011;66538;53.150;18.160;2023-08-20T06:12:51;25.00;;;21.90;;
77453;SDS011;66538;53.150;18.160;2023-08-20T06:15:17;25.40;;;22.50;;
77453;SDS011;66538;53.150;18.160;2023-08-20T06:17:44;23.70;;;21.00;;
77453;SDS011;66538;53.150;18.160;2023-08-20T06:20:11;23.90;;;21.00;;
77453;SDS011;66538;53.150;18.160;2023-08-20T06:22:38;22.80;;;20.20;;
77453;SDS011;66538;53.150;18.160;2023-08-20T06:25:05;24.30;;;21.50;;
77453;SDS011;66538;53.150;18.160;2023-08-20T06:27:32;23.00;;;20.40;;
77453;SDS011;66538;53.150;18.160;2023-08-20T06:29:59;22.00;;;19.80;;
77453;SDS011;66538;53.150;18.160;2023-08-20T06:32:26;20.90;;;18.60;;
77453;SDS011;66538;53.150;18.160;2023-08-20T06:34:53;18.90;;;17.00;;
77453;SDS011;66538;53.150;18.160;2023-08-20T06:37:20;18.80;;;16.70;;
77453;SDS011;66538;53.150;18.160;2023-08-20T06:39:46;17.80;;;15.90;;
77453;SDS011;66538;53.150;18.160;2023-08-20T06:42:13;18.80;;;16.90;;
77453;SDS011;66538;53.150;18.160;2023-08-20T06:44:39;18.30;;;16.50;;
77453;SDS011;66538;53.150;18.160;2023-08-20T06:47:06;17.60;;;15.70;;
77453;SDS011;66538;53.150;18.160;2023-08-20T06:49:32;17.10;;;15.40;;
77453;SDS011;66538;53.150;18.160;2023-08-20T06:51:59;17.70;;;15.90;;
77453;SDS011;66538;53.150;18.160;2023-08-20T06:54:26;17.70;;;15.90;;
77453;SDS011;66538;53.150;18.160;2023-08-20T06:56:52;20.20;;;17.10;;
77453;SDS011;66538;53.150;18.160;2023-08-20T06:59:19;16.50;;;14.80;;
77453;SDS011;66538;53.150;18.160;2023-08-20T07:01:45;15.30;;;13.70;;
77453;SDS011;66538;53.150;18.160;2023-08-20T07:04:12;14.40;;;12.90;;
77453;SDS011;66538;53.150;18.160;2023-08-20T07:06:39;14.90;;;13.40;;
77453;SDS011;66538;53.150;18.160;2023-08-20T07:09:06;14.70;;;13.10;;
77453;SDS011;66538;53.150;18.160;2023-08-20T07:11:32;13.50;;;11.70;;
77453;SDS011;66538;53.150;18.160;2023-08-20T07:13:59;12.40;;;11.20;;
77453;SDS011;66538;53.150;18.160;2023-08-20T07:16:25;14.00;;;12.50;;
77453;SDS011;66538;53.150;18.160;2023-08-20T07:18:52;14.30;;;12.90;;
77453;SDS011;66538;53.150;18.160;2023-08-20T07:21:19;11.30;;;10.20;;
77453;SDS011;66538;53.150;18.160;2023-08-20T07:23:46;12.10;;;10.80;;
77453;SDS011;66538;53.150;18.160;2023-08-20T07:26:12;13.50;;;11.50;;
77453;SDS011;66538;53.150;18.160;2023-08-20T07:28:39;13.20;;;11.80;;
77453;SDS011;66538;53.150;18.160;2023-08-20T07:31:29;15.00;;;13.20;;
77453;SDS011;66538;53.150;18.160;2023-08-20T07:33:58;15.60;;;13.90;;
77453;SDS011;66538;53.150;18.160;2023-08-20T07:36:25;16.00;;;12.80;;
77453;SDS011;66538;53.150;18.160;2023-08-20T07:38:53;18.10;;;14.00;;
77453;SDS011;66538;53.150;18.160;2023-08-20T07:41:20;14.60;;;13.20;;
77453;SDS011;66538;53.150;18.160;2023-08-20T07:43:47;14.60;;;13.10;;
77453;SDS011;66538;53.150;18.160;2023-08-20T07:46:15;14.40;;;12.80;;
77453;SDS011;66538;53.150;18.160;2023-08-20T07:48:42;12.10;;;10.80;;
77453;SDS011;66538;53.150;18.160;2023-08-20T07:51:09;10.80;;;9.70;;
77453;SDS011;66538;53.150;18.160;2023-08-20T07:53:36;10.80;;;9.70;;
77453;SDS011;66538;53.150;18.160;2023-08-20T07:56:02;10.70;;;9.50;;
77453;SDS011;66538;53.150;18.160;2023-08-20T07:58:29;10.60;;;9.60;;
77453;SDS011;66538;53.150;18.160;2023-08-20T08:00:56;11.80;;;10.60;;
77453;SDS011;66538;53.150;18.160;2023-08-20T08:03:26;12.80;;;11.30;;
77453;SDS011;66538;53.150;18.160;2023-08-20T08:05:53;12.80;;;11.50;;
77453;SDS011;66538;53.150;18.160;2023-08-20T08:08:21;12.60;;;11.40;;
77453;SDS011;66538;53.150;18.160;2023-08-20T08:10:48;11.80;;;10.60;;
77453;SDS011;66538;53.150;18.160;2023-08-20T08:13:17;11.70;;;10.50;;
77453;SDS011;66538;53.150;18.160;2023-08-20T08:15:46;11.90;;;10.70;;
77453;SDS011;66538;53.150;18.160;2023-08-20T08:18:13;11.40;;;10.20;;
77453;SDS011;66538;53.150;18.160;2023-08-20T08:20:40;13.20;;;10.90;;
77453;SDS011;66538;53.150;18.160;2023-08-20T08:23:07;11.80;;;10.50;;
77453;SDS011;66538;53.150;18.160;2023-08-20T08:25:33;10.40;;;9.40;;
77453;SDS011;66538;53.150;18.160;2023-08-20T08:28:00;11.90;;;10.70;;
77453;SDS011;66538;53.150;18.160;2023-08-20T08:30:26;10.50;;;9.50;;
77453;SDS011;66538;53.150;18.160;2023-08-20T08:32:53;11.10;;;9.40;;
77453;SDS011;66538;53.150;18.160;2023-08-20T08:35:20;12.00;;;8.80;;
77453;SDS011;66538;53.150;18.160;2023-08-20T08:37:47;9.40;;;8.40;;
77453;SDS011;66538;53.150;18.160;2023-08-20T08:40:13;10.10;;;9.10;;
77453;SDS011;66538;53.150;18.160;2023-08-20T08:42:40;9.20;;;8.20;;
77453;SDS011;66538;53.150;18.160;2023-08-20T08:45:09;10.10;;;8.50;;
77453;SDS011;66538;53.150;18.160;2023-08-20T08:47:39;10.50;;;9.30;;
77453;SDS011;66538;53.150;18.160;2023-08-20T08:50:06;9.80;;;8.50;;
77453;SDS011;66538;53.150;18.160;2023-08-20T08:52:36;9.50;;;8.30;;
77453;SDS011;66538;53.150;18.160;2023-08-20T08:55:04;9.50;;;8.50;;
77453;SDS011;66538;53.150;18.160;2023-08-20T08:57:37;10.90;;;8.30;;
77453;SDS011;66538;53.150;18.160;2023-08-20T09:00:04;9.60;;;8.70;;
77453;SDS011;66538;53.150;18.160;2023-08-20T09:02:31;9.60;;;8.10;;
77453;SDS011;66538;53.150;18.160;2023-08-20T09:04:58;9.10;;;8.20;;
77453;SDS011;66538;53.150;18.160;2023-08-20T09:07:25;10.10;;;9.00;;
77453;SDS011;66538;53.150;18.160;2023-08-20T09:09:56;8.90;;;7.80;;
77453;SDS011;66538;53.150;18.160;2023-08-20T09:12:25;9.80;;;8.80;;
77453;SDS011;66538;53.150;18.160;2023-08-20T09:14:53;9.30;;;8.30;;
77453;SDS011;66538;53.150;18.160;2023-08-20T09:17:24;9.10;;;8.10;;
77453;SDS011;66538;53.150;18.160;2023-08-20T09:19:54;9.90;;;9.00;;
77453;SDS011;66538;53.150;18.160;2023-08-20T09:22:26;9.10;;;8.00;;
77453;SDS011;66538;53.150;18.160;2023-08-20T09:24:53;10.60;;;9.00;;
77453;SDS011;66538;53.150;18.160;2023-08-20T09:27:22;9.20;;;7.80;;
77453;SDS011;66538;53.150;18.160;2023-08-20T09:29:50;10.20;;;8.40;;
77453;SDS011;66538;53.150;18.160;2023-08-20T09:32:18;9.30;;;8.40;;
77453;SDS011;66538;53.150;18.160;2023-08-20T09:34:50;9.10;;;8.00;;
77453;SDS011;66538;53.150;18.160;2023-08-20T09:37:18;9.80;;;8.40;;
77453;SDS011;66538;53.150;18.160;2023-08-20T09:39:46;9.30;;;8.30;;
77453;SDS011;66538;53.150;18.160;2023-08-20T09:42:13;8.90;;;8.00;;
77453;SDS011;66538;53.150;18.160;2023-08-20T09:44:41;9.50;;;8.60;;
77453;SDS011;66538;53.150;18.160;2023-08-20T09:47:13;9.40;;;7.30;;
77453;SDS011;66538;53.150;18.160;2023-08-20T09:49:42;8.00;;;7.20;;
77453;SDS011;66538;53.150;18.160;2023-08-20T09:52:11;8.50;;;7.10;;
77453;SDS011;66538;53.150;18.160;2023-08-20T09:57:14;8.80;;;7.90;;
77453;SDS011;66538;53.150;18.160;2023-08-20T10:00:07;9.20;;;7.90;;
77453;SDS011;66538;53.150;18.160;2023-08-20T10:02:42;9.10;;;8.20;;
77453;SDS011;66538;53.150;18.160;2023-08-20T10:07:37;8.70;;;7.10;;
77453;SDS011;66538;53.150;18.160;2023-08-20T10:10:08;8.70;;;7.90;;
77453;SDS011;66538;53.150;18.160;2023-08-20T10:12:38;8.10;;;7.20;;
77453;SDS011;66538;53.150;18.160;2023-08-20T10:15:09;8.50;;;7.60;;
77453;SDS011;66538;53.150;18.160;2023-08-20T10:17:37;9.40;;;7.80;;
77453;SDS011;66538;53.150;18.160;2023-08-20T10:20:05;8.90;;;8.00;;
77453;SDS011;66538;53.150;18.160;2023-08-20T10:22:33;8.30;;;6.80;;
77453;SDS011;66538;53.150;18.160;2023-08-20T10:25:07;9.00;;;8.10;;
77453;SDS011;66538;53.150;18.160;2023-08-20T10:27:37;9.60;;;8.60;;
77453;SDS011;66538;53.150;18.160;2023-08-20T10:30:13;9.60;;;7.90;;
77453;SDS011;66538;53.150;18.160;2023-08-20T10:32:53;9.40;;;8.00;;
77453;SDS011;66538;53.150;18.160;2023-08-20T10:35:25;9.20;;;8.30;;
77453;SDS011;66538;53.150;18.160;2023-08-20T10:38:00;8.80;;;7.90;;
77453;SDS011;66538;53.150;18.160;2023-08-20T10:40:46;8.60;;;7.70;;
77453;SDS011;66538;53.150;18.160;2023-08-20T10:48:34;8.60;;;7.80;;
77453;SDS011;66538;53.150;18.160;2023-08-20T10:51:16;8.50;;;7.30;;
77453;SDS011;66538;53.150;18.160;2023-08-20T10:59:13;7.70;;;7.00;;
77453;SDS011;66538;53.150;18.160;2023-08-20T11:01:45;8.50;;;7.10;;
77453;SDS011;66538;53.150;18.160;2023-08-20T11:04:19;8.20;;;7.40;;
77453;SDS011;66538;53.150;18.160;2023-08-20T11:06:49;7.70;;;7.00;;
77453;SDS011;66538;53.150;18.160;2023-08-20T11:09:21;8.20;;;6.90;;
77453;SDS011;66538;53.150;18.160;2023-08-20T11:11:48;8.30;;;7.50;;
77453;SDS011;66538;53.150;18.160;2023-08-20T11:14:15;7.90;;;6.70;;
77453;SDS011;66538;53.150;18.160;2023-08-20T11:16:42;7.70;;;6.90;;
77453;SDS011;66538;53.150;18.160;2023-08-20T11:19:12;7.30;;;6.60;;
77453;SDS011;66538;53.150;18.160;2023-08-20T11:21:40;8.30;;;7.40;;
77453;SDS011;66538;53.150;18.160;2023-08-20T11:24:09;7.80;;;6.70;;
77453;SDS011;66538;53.150;18.160;2023-08-20T11:26:39;6.90;;;6.20;;
77453;SDS011;66538;53.150;18.160;2023-08-20T11:29:07;8.00;;;7.20;;
77453;SDS011;66538;53.150;18.160;2023-08-20T11:31:37;8.30;;;7.00;;
77453;SDS011;66538;53.150;18.160;2023-08-20T11:34:05;8.30;;;7.50;;
77453;SDS011;66538;53.150;18.160;2023-08-20T11:36:32;9.30;;;6.90;;
77453;SDS011;66538;53.150;18.160;2023-08-20T11:38:59;7.20;;;6.50;;
77453;SDS011;66538;53.150;18.160;2023-08-20T11:41:25;8.60;;;6.90;;
77453;SDS011;66538;53.150;18.160;2023-08-20T11:43:52;7.80;;;7.10;;
77453;SDS011;66538;53.150;18.160;2023-08-20T11:46:20;8.90;;;8.00;;
77453;SDS011;66538;53.150;18.160;2023-08-20T11:49:07;8.10;;;6.80;;
77453;SDS011;66538;53.150;18.160;2023-08-20T11:51:47;8.50;;;7.00;;
77453;SDS011;66538;53.150;18.160;2023-08-20T11:54:16;8.10;;;7.00;;
77453;SDS011;66538;53.150;18.160;2023-08-20T11:56:44;7.00;;;6.30;;
77453;SDS011;66538;53.150;18.160;2023-08-20T11:59:13;9.80;;;7.20;;
77453;SDS011;66538;53.150;18.160;2023-08-20T12:01:41;8.70;;;7.50;;
77453;SDS011;66538;53.150;18.160;2023-08-20T12:04:08;7.60;;;6.80;;
77453;SDS011;66538;53.150;18.160;2023-08-20T12:06:36;8.30;;;7.20;;
77453;SDS011;66538;53.150;18.160;2023-08-20T12:09:24;8.10;;;7.10;;
77453;SDS011;66538;53.150;18.160;2023-08-20T12:11:54;8.50;;;6.70;;
77453;SDS011;66538;53.150;18.160;2023-08-20T12:14:24;8.00;;;6.50;;
77453;SDS011;66538;53.150;18.160;2023-08-20T12:16:51;7.00;;;6.30;;
77453;SDS011;66538;53.150;18.160;2023-08-20T12:19:17;8.10;;;7.30;;
77453;SDS011;66538;53.150;18.160;2023-08-20T12:21:45;7.20;;;6.20;;
77453;SDS011;66538;53.150;18.160;2023-08-20T12:24:12;7.70;;;7.00;;
77453;SDS011;66538;53.150;18.160;2023-08-20T12:26:39;7.90;;;7.10;;
77453;SDS011;66538;53.150;18.160;2023-08-20T12:29:06;8.60;;;7.30;;
77453;SDS011;66538;53.150;18.160;2023-08-20T12:31:34;7.20;;;6.50;;
77453;SDS011;66538;53.150;18.160;2023-08-20T12:36:28;7.60;;;6.90;;
77453;SDS011;66538;53.150;18.160;2023-08-20T12:38:55;6.90;;;6.00;;
77453;SDS011;66538;53.150;18.160;2023-08-20T12:41:22;8.10;;;6.80;;
77453;SDS011;66538;53.150;18.160;2023-08-20T12:43:49;7.70;;;6.60;;
77453;SDS011;66538;53.150;18.160;2023-08-20T12:46:16;7.10;;;6.40;;
77453;SDS011;66538;53.150;18.160;2023-08-20T12:51:10;7.70;;;6.70;;
77453;SDS011;66538;53.150;18.160;2023-08-20T12:53:40;8.20;;;6.60;;
77453;SDS011;66538;53.150;18.160;2023-08-20T12:56:07;9.00;;;6.40;;
77453;SDS011;66538;53.150;18.160;2023-08-20T12:58:34;7.70;;;6.50;;
77453;SDS011;66538;53.150;18.160;2023-08-20T13:01:01;8.90;;;6.70;;
77453;SDS011;66538;53.150;18.160;2023-08-20T13:03:28;7.50;;;6.70;;
77453;SDS011;66538;53.150;18.160;2023-08-20T13:08:25;8.10;;;6.70;;
77453;SDS011;66538;53.150;18.160;2023-08-20T13:10:56;7.50;;;6.70;;
77453;SDS011;66538;53.150;18.160;2023-08-20T13:13:24;7.50;;;6.30;;
77453;SDS011;66538;53.150;18.160;2023-08-20T13:15:51;7.90;;;7.10;;
77453;SDS011;66538;53.150;18.160;2023-08-20T13:18:19;7.20;;;6.50;;
77453;SDS011;66538;53.150;18.160;2023-08-20T13:20:53;7.70;;;6.90;;
77453;SDS011;66538;53.150;18.160;2023-08-20T13:23:20;8.10;;;6.40;;
77453;SDS011;66538;53.150;18.160;2023-08-20T13:25:47;7.50;;;6.10;;
77453;SDS011;66538;53.150;18.160;2023-08-20T13:28:14;6.30;;;5.70;;
77453;SDS011;66538;53.150;18.160;2023-08-20T13:30:40;7.80;;;5.90;;
77453;SDS011;66538;53.150;18.160;2023-08-20T13:33:07;7.10;;;5.70;;
77453;SDS011;66538;53.150;18.160;2023-08-20T13:35:34;6.80;;;6.10;;
77453;SDS011;66538;53.150;18.160;2023-08-20T13:38:01;6.30;;;5.60;;
77453;SDS011;66538;53.150;18.160;2023-08-20T13:40:28;6.80;;;5.80;;
77453;SDS011;66538;53.150;18.160;2023-08-20T13:42:54;7.20;;;6.50;;
77453;SDS011;66538;53.150;18.160;2023-08-20T13:45:21;7.20;;;6.50;;
77453;SDS011;66538;53.150;18.160;2023-08-20T13:47:48;6.50;;;5.90;;
77453;SDS011;66538;53.150;18.160;2023-08-20T13:50:14;6.70;;;5.60;;
77453;SDS011;66538;53.150;18.160;2023-08-20T13:52:42;6.50;;;5.20;;
77453;SDS011;66538;53.150;18.160;2023-08-20T13:55:09;6.50;;;4.90;;
77453;SDS011;66538;53.150;18.160;2023-08-20T13:57:36;6.60;;;5.50;;
77453;SDS011;66538;53.150;18.160;2023-08-20T14:00:03;6.30;;;4.80;;
77453;SDS011;66538;53.150;18.160;2023-08-20T14:02:35;5.70;;;4.90;;
77453;SDS011;66538;53.150;18.160;2023-08-20T14:05:02;6.30;;;5.10;;
77453;SDS011;66538;53.150;18.160;2023-08-20T14:07:30;7.40;;;5.40;;
77453;SDS011;66538;53.150;18.160;2023-08-20T14:09:58;6.10;;;4.90;;
77453;SDS011;66538;53.150;18.160;2023-08-20T14:14:52;7.00;;;5.30;;
77453;SDS011;66538;53.150;18.160;2023-08-20T14:17:19;7.60;;;5.40;;
77453;SDS011;66538;53.150;18.160;2023-08-20T14:19:45;7.20;;;6.50;;
77453;SDS011;66538;53.150;18.160;2023-08-20T14:22:12;6.90;;;6.20;;
77453;SDS011;66538;53.150;18.160;2023-08-20T14:24:38;7.20;;;5.90;;
77453;SDS011;66538;53.150;18.160;2023-08-20T14:27:05;7.50;;;5.80;;
77453;SDS011;66538;53.150;18.160;2023-08-20T14:29:34;7.40;;;5.50;;
77453;SDS011;66538;53.150;18.160;2023-08-20T14:32:01;7.30;;;6.60;;
77453;SDS011;66538;53.150;18.160;2023-08-20T14:34:29;7.40;;;6.20;;
77453;SDS011;66538;53.150;18.160;2023-08-20T14:36:56;8.00;;;6.80;;
77453;SDS011;66538;53.150;18.160;2023-08-20T14:39:22;7.20;;;6.50;;
77453;SDS011;66538;53.150;18.160;2023-08-20T14:41:50;8.70;;;6.70;;
77453;SDS011;66538;53.150;18.160;2023-08-20T14:44:16;7.20;;;6.50;;
77453;SDS011;66538;53.150;18.160;2023-08-20T14:46:43;7.90;;;7.10;;
77453;SDS011;66538;53.150;18.160;2023-08-20T14:49:09;7.70;;;6.00;;
77453;SDS011;66538;53.150;18.160;2023-08-20T14:51:36;7.80;;;7.00;;
77453;SDS011;66538;53.150;18.160;2023-08-20T14:54:02;9.00;;;6.40;;
77453;SDS011;66538;53.150;18.160;2023-08-20T14:56:29;8.20;;;7.40;;
77453;SDS011;66538;53.150;18.160;2023-08-20T14:58:56;7.10;;;6.40;;
77453;SDS011;66538;53.150;18.160;2023-08-20T15:01:23;7.60;;;6.70;;
77453;SDS011;66538;53.150;18.160;2023-08-20T15:03:49;7.90;;;6.30;;